sensor_id;sensor_type;location;lat;lon;timestamp;pressure;altitude;pressure_sealevel;temperature;humidity
74834;BME280;63361;52.384;20.930;2023-04-23T00:01:39;100357.31;;;3.28;100.00
74834;BME280;63361;52.384;20.930;2023-04-23T00:04:07;100361.47;;;3.35;100.00
74834;BME280;63361;52.384;20.930;2023-04-23T00:06:33;100365.06;;;3.29;100.00
74834;BME280;63361;52.384;20.930;2023-04-23T00:08:59;100359.03;;;3.22;100.00
74834;BME280;63361;52.384;20.930;2023-04-23T00:11:25;100350.94;;;3.17;100.00
74834;BME280;63361;52.384;20.930;2023-04-23T00:13:51;100364.84;;;3.19;100.00
74834;BME280;63361;52.384;20.930;2023-04-23T00:16:18;100355.00;;;3.20;100.00
74834;BME280;63361;52.384;20.930;2023-04-23T00:18:44;100354.88;;;3.14;100.00
74834;BME280;63361;52.384;20.930;2023-04-23T00:21:09;100369.84;;;3.15;100.00
74834;BME280;63361;52.384;20.930;2023-04-23T00:23:34;100364.81;;;3.07;100.00
74834;BME280;63361;52.384;20.930;2023-04-23T00:26:00;100365.88;;;3.06;100.00
74834;BME280;63361;52.384;20.930;2023-04-23T00:28:25;100358.13;;;3.05;100.00
74834;BME280;63361;52.384;20.930;2023-04-23T00:30:50;100355.56;;;2.98;100.00
74834;BME280;63361;52.384;20.930;2023-04-23T00:33:16;100358.81;;;3.00;100.00
74834;BME280;63361;52.384;20.930;2023-04-23T00:35:41;100335.72;;;2.94;100.00
74834;BME280;63361;52.384;20.930;2023-04-23T00:38:06;100336.81;;;3.05;100.00
74834;BME280;63361;52.384;20.930;2023-04-23T00:40:32;100343.28;;;3.09;100.00
74834;BME280;63361;52.384;20.930;2023-04-23T00:42:57;100352.31;;;3.08;100.00
74834;BME280;63361;52.384;20.930;2023-04-23T00:45:23;100350.13;;;3.05;100.00
74834;BME280;63361;52.384;20.930;2023-04-23T00:47:48;100343.84;;;2.99;100.00
74834;BME280;63361;52.384;20.930;2023-04-23T00:50:14;100337.94;;;2.97;100.00
74834;BME280;63361;52.384;20.930;2023-04-23T00:52:40;100361.94;;;3.09;100.00
74834;BME280;63361;52.384;20.930;2023-04-23T00:55:06;100350.94;;;3.05;100.00
74834;BME280;63361;52.384;20.930;2023-04-23T00:57:33;100359.03;;;3.10;100.00
74834;BME280;63361;52.384;20.930;2023-04-23T00:59:59;100361.94;;;3.09;100.00
74834;BME280;63361;52.384;20.930;2023-04-23T01:02:25;100355.19;;;3.06;100.00
74834;BME280;63361;52.384;20.930;2023-04-23T01:04:52;100358.00;;;3.00;100.00
74834;BME280;63361;52.384;20.930;2023-04-23T01:07:19;100358.59;;;3.02;100.00
74834;BME280;63361;52.384;20.930;2023-04-23T01:09:45;100356.97;;;3.01;100.00
74834;BME280;63361;52.384;20.930;2023-04-23T01:12:12;100357.78;;;3.01;100.00
74834;BME280;63361;52.384;20.930;2023-04-23T01:14:40;100353.56;;;2.94;100.00
74834;BME280;63361;52.384;20.930;2023-04-23T01:17:05;100360.53;;;2.95;100.00
74834;BME280;63361;52.384;20.930;2023-04-23T01:19:32;100358.69;;;2.83;100.00
74834;BME280;63361;52.384;20.930;2023-04-23T01:21:59;100363.69;;;3.03;100.00
74834;BME280;63361;52.384;20.930;2023-04-23T01:24:26;100364.47;;;2.92;100.00
74834;BME280;63361;52.384;20.930;2023-04-23T01:26:53;100369.81;;;2.92;100.00
74834;BME280;63361;52.384;20.930;2023-04-23T01:29:19;100369.25;;;2.90;100.00
74834;BME280;63361;52.384;20.930;2023-04-23T01:31:44;100366.44;;;2.85;100.00
74834;BME280;63361;52.384;20.930;2023-04-23T01:34:11;100331.78;;;2.73;100.00
74834;BME280;63361;52.384;20.930;2023-04-23T01:36:37;100353.34;;;2.83;100.00
74834;BME280;63361;52.384;20.930;2023-04-23T01:39:02;100313.81;;;2.57;100.00
74834;BME280;63361;52.384;20.930;2023-04-23T01:41:28;100348.69;;;2.79;100.00
74834;BME280;63361;52.384;20.930;2023-04-23T01:43:54;100336.53;;;2.71;100.00
74834;BME280;63361;52.384;20.930;2023-04-23T01:46:21;100329.13;;;2.73;100.00
74834;BME280;63361;52.384;20.930;2023-04-23T01:48:46;100365.63;;;2.96;100.00
74834;BME280;63361;52.384;20.930;2023-04-23T01:51:11;100358.44;;;2.85;100.00
74834;BME280;63361;52.384;20.930;2023-04-23T01:53:37;100368.06;;;2.86;100.00
74834;BME280;63361;52.384;20.930;2023-04-23T01:56:02;100363.91;;;2.90;100.00
74834;BME280;63361;52.384;20.930;2023-04-23T01:58:28;100367.84;;;2.88;100.00
74834;BME280;63361;52.384;20.930;2023-04-23T02:00:53;100360.41;;;2.78;100.00
74834;BME280;63361;52.384;20.930;2023-04-23T02:03:18;100360.41;;;2.78;100.00
74834;BME280;63361;52.384;20.930;2023-04-23T02:05:44;100359.00;;;2.75;100.00
74834;BME280;63361;52.384;20.930;2023-04-23T02:08:09;100368.41;;;2.78;100.00
74834;BME280;63361;52.384;20.930;2023-04-23T02:10:35;100373.03;;;2.82;100.00
74834;BME280;63361;52.384;20.930;2023-04-23T02:13:01;100369.47;;;2.89;100.00
74834;BME280;63361;52.384;20.930;2023-04-23T02:15:26;100365.88;;;2.83;100.00
74834;BME280;63361;52.384;20.930;2023-04-23T02:17:52;100362.72;;;2.74;100.00
74834;BME280;63361;52.384;20.930;2023-04-23T02:20:18;100349.13;;;2.64;100.00
74834;BME280;63361;52.384;20.930;2023-04-23T02:22:45;100369.91;;;2.74;100.00
74834;BME280;63361;52.384;20.930;2023-04-23T02:25:11;100357.72;;;2.66;100.00
74834;BME280;63361;52.384;20.930;2023-04-23T02:27:39;100360.28;;;2.73;100.00
74834;BME280;63361;52.384;20.930;2023-04-23T02:30:05;100365.25;;;2.69;100.00
74834;BME280;63361;52.384;20.930;2023-04-23T02:32:32;100357.34;;;2.63;100.00
74834;BME280;63361;52.384;20.930;2023-04-23T02:34:57;100356.53;;;2.62;100.00
74834;BME280;63361;52.384;20.930;2023-04-23T02:37:23;100333.22;;;2.46;100.00
74834;BME280;63361;52.384;20.930;2023-04-23T02:39:49;100346.25;;;2.54;100.00
74834;BME280;63361;52.384;20.930;2023-04-23T02:42:14;100347.38;;;2.46;100.00
74834;BME280;63361;52.384;20.930;2023-04-23T02:44:39;100352.97;;;2.57;100.00
74834;BME280;63361;52.384;20.930;2023-04-23T02:47:05;100339.47;;;2.40;100.00
74834;BME280;63361;52.384;20.930;2023-04-23T02:49:30;100359.88;;;2.46;100.00
74834;BME280;63361;52.384;20.930;2023-04-23T02:51:56;100342.16;;;2.40;100.00
74834;BME280;63361;52.384;20.930;2023-04-23T02:54:21;100346.44;;;2.41;100.00
74834;BME280;63361;52.384;20.930;2023-04-23T02:56:46;100350.59;;;2.48;100.00
74834;BME280;63361;52.384;20.930;2023-04-23T02:59:12;100351.19;;;2.51;100.00
74834;BME280;63361;52.384;20.930;2023-04-23T03:01:37;100353.28;;;2.48;100.00
74834;BME280;63361;52.384;20.930;2023-04-23T03:04:02;100352.50;;;2.60;100.00
74834;BME280;63361;52.384;20.930;2023-04-23T03:06:29;100362.38;;;2.71;100.00
74834;BME280;63361;52.384;20.930;2023-04-23T03:08:55;100351.81;;;2.64;100.00
74834;BME280;63361;52.384;20.930;2023-04-23T03:11:21;100348.69;;;2.67;100.00
74834;BME280;63361;52.384;20.930;2023-04-23T03:13:47;100341.50;;;2.56;100.00
74834;BME280;63361;52.384;20.930;2023-04-23T03:16:12;100346.59;;;2.58;100.00
74834;BME280;63361;52.384;20.930;2023-04-23T03:18:38;100348.44;;;2.57;100.00
74834;BME280;63361;52.384;20.930;2023-04-23T03:21:03;100348.91;;;2.54;100.00
74834;BME280;63361;52.384;20.930;2023-04-23T03:23:28;100336.94;;;2.45;100.00
74834;BME280;63361;52.384;20.930;2023-04-23T03:25:54;100351.13;;;2.57;100.00
74834;BME280;63361;52.384;20.930;2023-04-23T03:28:19;100350.41;;;2.62;100.00
74834;BME280;63361;52.384;20.930;2023-04-23T03:30:44;100338.63;;;2.69;100.00
74834;BME280;63361;52.384;20.930;2023-04-23T03:33:10;100337.66;;;2.64;100.00
74834;BME280;63361;52.384;20.930;2023-04-23T03:35:35;100342.22;;;2.75;100.00
74834;BME280;63361;52.384;20.930;2023-04-23T03:38:00;100349.88;;;2.83;100.00
74834;BME280;63361;52.384;20.930;2023-04-23T03:40:26;100334.78;;;2.77;100.00
74834;BME280;63361;52.384;20.930;2023-04-23T03:42:51;100316.72;;;2.67;100.00
74834;BME280;63361;52.384;20.930;2023-04-23T03:45:16;100304.91;;;2.75;100.00
74834;BME280;63361;52.384;20.930;2023-04-23T03:47:42;100317.56;;;3.03;100.00
74834;BME280;63361;52.384;20.930;2023-04-23T03:50:08;100327.53;;;3.71;100.00
74834;BME280;63361;52.384;20.930;2023-04-23T03:52:34;100333.81;;;4.83;100.00
74834;BME280;63361;52.384;20.930;2023-04-23T03:55:00;100330.88;;;5.79;100.00
74834;BME280;63361;52.384;20.930;2023-04-23T03:57:25;100322.72;;;6.76;100.00
74834;BME280;63361;52.384;20.930;2023-04-23T03:59:51;100352.13;;;7.97;100.00
74834;BME280;63361;52.384;20.930;2023-04-23T04:02:16;100321.63;;;8.49;100.00
74834;BME280;63361;52.384;20.930;2023-04-23T04:04:42;100353.81;;;9.56;100.00
74834;BME280;63361;52.384;20.930;2023-04-23T04:07:10;100354.84;;;10.34;100.00
74834;BME280;63361;52.384;20.930;2023-04-23T04:09:36;100352.41;;;11.35;100.00
74834;BME280;63361;52.384;20.930;2023-04-23T04:12:02;100353.16;;;12.49;93.44
74834;BME280;63361;52.384;20.930;2023-04-23T04:14:29;100339.56;;;13.19;89.22
74834;BME280;63361;52.384;20.930;2023-04-23T04:16:55;100351.88;;;13.85;83.89
74834;BME280;63361;52.384;20.930;2023-04-23T04:19:21;100353.13;;;14.65;79.79
74834;BME280;63361;52.384;20.930;2023-04-23T04:21:46;100356.53;;;15.24;75.12
74834;BME280;63361;52.384;20.930;2023-04-23T04:24:11;100354.38;;;15.43;70.76
74834;BME280;63361;52.384;20.930;2023-04-23T04:26:37;100344.03;;;15.93;70.40
74834;BME280;63361;52.384;20.930;2023-04-23T04:29:02;100350.94;;;15.99;69.37
74834;BME280;63361;52.384;20.930;2023-04-23T04:31:28;100351.81;;;15.07;69.50
74834;BME280;63361;52.384;20.930;2023-04-23T04:33:55;100347.56;;;14.70;69.19
74834;BME280;63361;52.384;20.930;2023-04-23T04:36:21;100350.81;;;15.56;68.36
74834;BME280;63361;52.384;20.930;2023-04-23T04:38:47;100347.38;;;15.81;66.98
74834;BME280;63361;52.384;20.930;2023-04-23T04:41:13;100346.56;;;14.43;69.62
74834;BME280;63361;52.384;20.930;2023-04-23T04:43:39;100344.13;;;15.71;67.16
74834;BME280;63361;52.384;20.930;2023-04-23T04:46:05;100352.47;;;15.12;66.91
74834;BME280;63361;52.384;20.930;2023-04-23T04:48:30;100347.38;;;14.30;70.55
74834;BME280;63361;52.384;20.930;2023-04-23T04:50:56;100349.03;;;14.76;69.26
74834;BME280;63361;52.384;20.930;2023-04-23T04:53:21;100318.22;;;14.58;70.02
74834;BME280;63361;52.384;20.930;2023-04-23T04:55:47;100342.16;;;16.02;65.19
74834;BME280;63361;52.384;20.930;2023-04-23T04:58:13;100347.88;;;17.21;62.49
74834;BME280;63361;52.384;20.930;2023-04-23T05:00:38;100358.47;;;17.23;58.36
74834;BME280;63361;52.384;20.930;2023-04-23T05:03:03;100349.44;;;17.31;53.14
74834;BME280;63361;52.384;20.930;2023-04-23T05:05:31;100343.47;;;16.31;55.79
74834;BME280;63361;52.384;20.930;2023-04-23T05:07:57;100352.63;;;17.42;53.42
74834;BME280;63361;52.384;20.930;2023-04-23T05:10:26;100334.31;;;16.52;54.88
74834;BME280;63361;52.384;20.930;2023-04-23T05:12:52;100336.41;;;17.45;52.37
74834;BME280;63361;52.384;20.930;2023-04-23T05:15:17;100333.94;;;17.70;51.81
74834;BME280;63361;52.384;20.930;2023-04-23T05:17:42;100338.31;;;18.54;49.26
74834;BME280;63361;52.384;20.930;2023-04-23T05:20:09;100325.47;;;20.70;43.82
74834;BME280;63361;52.384;20.930;2023-04-23T05:22:38;100323.38;;;18.51;45.98
74834;BME280;63361;52.384;20.930;2023-04-23T05:25:05;100332.97;;;20.33;43.24
74834;BME280;63361;52.384;20.930;2023-04-23T05:27:31;100330.16;;;20.69;41.44
74834;BME280;63361;52.384;20.930;2023-04-23T05:29:57;100327.59;;;21.04;41.09
74834;BME280;63361;52.384;20.930;2023-04-23T05:32:23;100335.34;;;20.87;41.39
74834;BME280;63361;52.384;20.930;2023-04-23T05:34:49;100341.47;;;20.28;41.85
74834;BME280;63361;52.384;20.930;2023-04-23T05:37:14;100313.03;;;20.20;42.25
74834;BME280;63361;52.384;20.930;2023-04-23T05:39:40;100345.59;;;21.18;40.13
74834;BME280;63361;52.384;20.930;2023-04-23T05:42:05;100324.94;;;20.12;40.73
74834;BME280;63361;52.384;20.930;2023-04-23T05:44:30;100311.41;;;20.44;41.38
74834;BME280;63361;52.384;20.930;2023-04-23T05:46:56;100337.31;;;22.86;36.59
74834;BME280;63361;52.384;20.930;2023-04-23T05:49:21;100331.91;;;21.33;37.04
74834;BME280;63361;52.384;20.930;2023-04-23T05:51:47;100327.31;;;20.66;39.25
74834;BME280;63361;52.384;20.930;2023-04-23T05:54:12;100321.47;;;20.40;38.48
74834;BME280;63361;52.384;20.930;2023-04-23T05:56:37;100326.72;;;22.68;34.78
74834;BME280;63361;52.384;20.930;2023-04-23T05:59:02;100321.22;;;20.73;37.25
74834;BME280;63361;52.384;20.930;2023-04-23T06:01:28;100326.28;;;21.77;36.55
74834;BME280;63361;52.384;20.930;2023-04-23T06:03:53;100331.50;;;23.33;33.74
74834;BME280;63361;52.384;20.930;2023-04-23T06:06:19;100333.94;;;23.38;33.70
74834;BME280;63361;52.384;20.930;2023-04-23T06:08:44;100322.78;;;24.03;31.24
74834;BME280;63361;52.384;20.930;2023-04-23T06:11:10;100329.06;;;25.78;29.27
74834;BME280;63361;52.384;20.930;2023-04-23T06:13:35;100324.47;;;24.11;30.89
74834;BME280;63361;52.384;20.930;2023-04-23T06:16:07;100311.50;;;24.41;31.13
74834;BME280;63361;52.384;20.930;2023-04-23T06:18:34;100339.78;;;25.86;29.01
74834;BME280;63361;52.384;20.930;2023-04-23T06:21:00;100319.47;;;25.17;29.13
74834;BME280;63361;52.384;20.930;2023-04-23T06:23:29;100329.69;;;24.46;30.75
74834;BME280;63361;52.384;20.930;2023-04-23T06:25:54;100334.19;;;25.76;28.48
74834;BME280;63361;52.384;20.930;2023-04-23T06:28:19;100322.53;;;26.07;28.85
74834;BME280;63361;52.384;20.930;2023-04-23T06:30:45;100335.97;;;25.54;28.92
74834;BME280;63361;52.384;20.930;2023-04-23T06:33:11;100314.63;;;28.10;25.78
74834;BME280;63361;52.384;20.930;2023-04-23T06:35:36;100325.34;;;27.08;26.71
74834;BME280;63361;52.384;20.930;2023-04-23T06:38:02;100322.19;;;26.16;27.32
74834;BME280;63361;52.384;20.930;2023-04-23T06:40:27;100315.44;;;27.07;26.04
74834;BME280;63361;52.384;20.930;2023-04-23T06:42:52;100330.88;;;27.08;26.90
74834;BME280;63361;52.384;20.930;2023-04-23T06:45:18;100316.25;;;27.22;26.43
74834;BME280;63361;52.384;20.930;2023-04-23T06:47:44;100317.44;;;27.21;25.85
74834;BME280;63361;52.384;20.930;2023-04-23T06:50:10;100319.38;;;28.20;24.68
74834;BME280;63361;52.384;20.930;2023-04-23T06:52:35;100324.97;;;27.91;25.15
74834;BME280;63361;52.384;20.930;2023-04-23T06:55:00;100313.91;;;27.77;24.81
74834;BME280;63361;52.384;20.930;2023-04-23T06:57:27;100310.16;;;26.63;25.54
74834;BME280;63361;52.384;20.930;2023-04-23T06:59:52;100311.31;;;26.51;25.88
74834;BME280;63361;52.384;20.930;2023-04-23T07:02:17;100295.00;;;24.82;28.34
74834;BME280;63361;52.384;20.930;2023-04-23T07:04:43;100311.34;;;25.38;27.50
74834;BME280;63361;52.384;20.930;2023-04-23T07:07:08;100315.31;;;25.41;27.57
74834;BME280;63361;52.384;20.930;2023-04-23T07:09:34;100321.66;;;25.41;28.19
74834;BME280;63361;52.384;20.930;2023-04-23T07:11:59;100302.56;;;23.69;28.92
74834;BME280;63361;52.384;20.930;2023-04-23T07:14:25;100316.56;;;24.09;28.74
74834;BME280;63361;52.384;20.930;2023-04-23T07:16:50;100292.66;;;25.69;27.12
74834;BME280;63361;52.384;20.930;2023-04-23T07:19:16;100307.59;;;26.22;26.13
74834;BME280;63361;52.384;20.930;2023-04-23T07:21:41;100290.16;;;28.78;23.41
74834;BME280;63361;52.384;20.930;2023-04-23T07:24:06;100296.50;;;28.85;22.89
74834;BME280;63361;52.384;20.930;2023-04-23T07:26:32;100301.50;;;26.68;25.11
74834;BME280;63361;52.384;20.930;2023-04-23T07:28:58;100299.75;;;25.18;27.08
74834;BME280;63361;52.384;20.930;2023-04-23T07:31:23;100297.44;;;24.90;28.21
74834;BME280;63361;52.384;20.930;2023-04-23T07:33:49;100304.16;;;25.27;28.38
74834;BME280;63361;52.384;20.930;2023-04-23T07:36:14;100290.97;;;25.09;27.29
74834;BME280;63361;52.384;20.930;2023-04-23T07:38:40;100274.28;;;24.62;28.05
74834;BME280;63361;52.384;20.930;2023-04-23T07:41:05;100290.03;;;24.61;27.67
74834;BME280;63361;52.384;20.930;2023-04-23T07:43:31;100288.44;;;24.94;27.54
74834;BME280;63361;52.384;20.930;2023-04-23T07:45:56;100283.06;;;25.55;27.10
74834;BME280;63361;52.384;20.930;2023-04-23T07:48:22;100285.38;;;26.05;26.67
74834;BME280;63361;52.384;20.930;2023-04-23T07:50:47;100285.28;;;26.81;25.55
74834;BME280;63361;52.384;20.930;2023-04-23T07:53:12;100287.44;;;24.75;27.86
74834;BME280;63361;52.384;20.930;2023-04-23T07:55:38;100303.78;;;26.48;26.06
74834;BME280;63361;52.384;20.930;2023-04-23T07:58:03;100289.84;;;24.13;28.65
74834;BME280;63361;52.384;20.930;2023-04-23T08:00:28;100287.72;;;26.96;25.77
74834;BME280;63361;52.384;20.930;2023-04-23T08:02:54;100279.50;;;25.55;26.73
74834;BME280;63361;52.384;20.930;2023-04-23T08:05:19;100289.72;;;27.53;26.02
74834;BME280;63361;52.384;20.930;2023-04-23T08:07:45;100280.59;;;27.52;24.45
74834;BME280;63361;52.384;20.930;2023-04-23T08:10:10;100284.94;;;27.82;23.82
74834;BME280;63361;52.384;20.930;2023-04-23T08:12:35;100274.19;;;26.77;25.85
74834;BME280;63361;52.384;20.930;2023-04-23T08:15:02;100284.19;;;27.74;23.91
74834;BME280;63361;52.384;20.930;2023-04-23T08:17:27;100274.19;;;26.70;24.90
74834;BME280;63361;52.384;20.930;2023-04-23T08:19:52;100283.75;;;27.05;25.09
74834;BME280;63361;52.384;20.930;2023-04-23T08:22:18;100263.84;;;23.35;29.26
74834;BME280;63361;52.384;20.930;2023-04-23T08:24:43;100272.59;;;23.41;29.17
74834;BME280;63361;52.384;20.930;2023-04-23T08:27:10;100280.75;;;26.26;25.95
74834;BME280;63361;52.384;20.930;2023-04-23T08:29:35;100267.56;;;27.63;24.36
74834;BME280;63361;52.384;20.930;2023-04-23T08:32:01;100255.88;;;24.76;27.19
74834;BME280;63361;52.384;20.930;2023-04-23T08:34:26;100259.53;;;25.76;26.24
74834;BME280;63361;52.384;20.930;2023-04-23T08:36:52;100252.75;;;28.13;24.35
74834;BME280;63361;52.384;20.930;2023-04-23T08:39:17;100263.91;;;26.71;25.65
74834;BME280;63361;52.384;20.930;2023-04-23T08:41:43;100266.25;;;26.61;25.03
74834;BME280;63361;52.384;20.930;2023-04-23T08:44:18;100269.03;;;26.65;25.27
74834;BME280;63361;52.384;20.930;2023-04-23T08:46:46;100259.09;;;26.46;25.34
74834;BME280;63361;52.384;20.930;2023-04-23T08:49:16;100249.75;;;27.18;25.24
74834;BME280;63361;52.384;20.930;2023-04-23T08:51:53;100240.13;;;28.85;22.55
74834;BME280;63361;52.384;20.930;2023-04-23T08:54:26;100245.16;;;28.31;22.96
74834;BME280;63361;52.384;20.930;2023-04-23T08:56:57;100258.88;;;25.97;25.88
74834;BME280;63361;52.384;20.930;2023-04-23T08:59:29;100248.09;;;25.26;25.60
74834;BME280;63361;52.384;20.930;2023-04-23T09:01:54;100240.13;;;26.55;24.42
74834;BME280;63361;52.384;20.930;2023-04-23T09:04:21;100245.38;;;27.00;24.51
74834;BME280;63361;52.384;20.930;2023-04-23T09:06:48;100245.50;;;26.16;24.88
74834;BME280;63361;52.384;20.930;2023-04-23T09:09:15;100238.69;;;25.92;24.99
74834;BME280;63361;52.384;20.930;2023-04-23T09:11:42;100234.13;;;25.05;25.66
74834;BME280;63361;52.384;20.930;2023-04-23T09:14:07;100234.44;;;26.20;24.08
74834;BME280;63361;52.384;20.930;2023-04-23T09:16:33;100231.47;;;27.74;23.18
74834;BME280;63361;52.384;20.930;2023-04-23T09:18:58;100235.88;;;26.97;23.24
74834;BME280;63361;52.384;20.930;2023-04-23T09:21:23;100225.88;;;27.92;22.04
74834;BME280;63361;52.384;20.930;2023-04-23T09:23:50;100231.22;;;26.04;25.16
74834;BME280;63361;52.384;20.930;2023-04-23T09:26:20;100230.59;;;26.35;24.15
74834;BME280;63361;52.384;20.930;2023-04-23T09:28:49;100219.03;;;28.14;23.09
74834;BME280;63361;52.384;20.930;2023-04-23T09:31:21;100223.63;;;27.16;22.74
74834;BME280;63361;52.384;20.930;2023-04-23T09:33:52;100232.53;;;26.27;24.40
74834;BME280;63361;52.384;20.930;2023-04-23T09:36:20;100224.78;;;25.82;24.86
74834;BME280;63361;52.384;20.930;2023-04-23T09:38:46;100187.06;;;26.32;23.96
74834;BME280;63361;52.384;20.930;2023-04-23T09:43:47;100231.50;;;25.26;25.44
74834;BME280;63361;52.384;20.930;2023-04-23T09:46:12;100223.78;;;26.22;23.88
74834;BME280;63361;52.384;20.930;2023-04-23T09:48:41;100217.59;;;26.53;23.82
74834;BME280;63361;52.384;20.930;2023-04-23T09:51:07;100204.19;;;28.53;21.62
74834;BME280;63361;52.384;20.930;2023-04-23T09:53:42;100203.59;;;29.31;21.37
74834;BME280;63361;52.384;20.930;2023-04-23T09:56:08;100199.53;;;30.14;21.01
74834;BME280;63361;52.384;20.930;2023-04-23T09:58:33;100206.50;;;27.71;21.89
74834;BME280;63361;52.384;20.930;2023-04-23T10:01:08;100203.94;;;25.37;24.89
74834;BME280;63361;52.384;20.930;2023-04-23T10:03:34;100198.78;;;25.93;24.01
74834;BME280;63361;52.384;20.930;2023-04-23T10:05:59;100196.13;;;26.22;23.32
74834;BME280;63361;52.384;20.930;2023-04-23T10:08:26;100189.56;;;27.01;22.72
74834;BME280;63361;52.384;20.930;2023-04-23T10:10:51;100179.44;;;29.21;21.90
74834;BME280;63361;52.384;20.930;2023-04-23T10:13:17;100179.84;;;26.06;24.04
74834;BME280;63361;52.384;20.930;2023-04-23T10:15:45;100185.63;;;25.66;23.97
74834;BME280;63361;52.384;20.930;2023-04-23T10:18:12;100179.63;;;26.89;23.18
74834;BME280;63361;52.384;20.930;2023-04-23T10:20:38;100166.00;;;26.03;24.92
74834;BME280;63361;52.384;20.930;2023-04-23T10:23:04;100149.53;;;26.59;23.85
74834;BME280;63361;52.384;20.930;2023-04-23T10:25:32;100158.09;;;27.89;22.25
74834;BME280;63361;52.384;20.930;2023-04-23T10:28:00;100166.75;;;25.89;24.64
74834;BME280;63361;52.384;20.930;2023-04-23T10:30:27;100170.50;;;29.02;22.09
74834;BME280;63361;52.384;20.930;2023-04-23T10:32:54;100161.38;;;30.11;18.68
74834;BME280;63361;52.384;20.930;2023-04-23T10:35:21;100158.25;;;28.41;20.42
74834;BME280;63361;52.384;20.930;2023-04-23T10:37:47;100161.34;;;27.52;21.43
74834;BME280;63361;52.384;20.930;2023-04-23T10:40:14;100157.44;;;27.43;21.07
74834;BME280;63361;52.384;20.930;2023-04-23T10:42:41;100155.38;;;27.72;22.11
74834;BME280;63361;52.384;20.930;2023-04-23T10:45:14;100149.56;;;28.28;20.79
74834;BME280;63361;52.384;20.930;2023-04-23T10:47:44;100140.03;;;29.67;20.11
74834;BME280;63361;52.384;20.930;2023-04-23T10:50:36;100154.22;;;30.10;19.73
74834;BME280;63361;52.384;20.930;2023-04-23T10:53:02;100134.66;;;28.63;21.00
74834;BME280;63361;52.384;20.930;2023-04-23T10:55:30;100148.94;;;25.79;23.02
74834;BME280;63361;52.384;20.930;2023-04-23T10:58:01;100139.78;;;25.65;23.36
74834;BME280;63361;52.384;20.930;2023-04-23T11:00:28;100140.06;;;26.92;21.86
74834;BME280;63361;52.384;20.930;2023-04-23T11:02:54;100149.16;;;26.82;22.17
74834;BME280;63361;52.384;20.930;2023-04-23T11:05:21;100143.63;;;26.93;21.35
74834;BME280;63361;52.384;20.930;2023-04-23T11:08:05;100135.13;;;27.82;21.04
74834;BME280;63361;52.384;20.930;2023-04-23T11:10:31;100114.16;;;27.77;21.40
74834;BME280;63361;52.384;20.930;2023-04-23T11:13:27;100117.09;;;28.25;21.77
74834;BME280;63361;52.384;20.930;2023-04-23T11:16:12;100126.63;;;27.02;23.10
74834;BME280;63361;52.384;20.930;2023-04-23T11:21:54;100123.34;;;27.60;21.28
74834;BME280;63361;52.384;20.930;2023-04-23T11:24:21;100100.25;;;27.84;21.04
74834;BME280;63361;52.384;20.930;2023-04-23T11:26:50;100112.03;;;28.65;19.51
74834;BME280;63361;52.384;20.930;2023-04-23T11:29:17;100102.69;;;29.64;18.50
74834;BME280;63361;52.384;20.930;2023-04-23T11:31:45;100086.91;;;29.88;18.77
74834;BME280;63361;52.384;20.930;2023-04-23T11:34:10;100088.00;;;29.30;19.40
74834;BME280;63361;52.384;20.930;2023-04-23T11:36:36;100085.84;;;28.11;20.72
74834;BME280;63361;52.384;20.930;2023-04-23T11:39:01;100099.50;;;28.43;20.16
74834;BME280;63361;52.384;20.930;2023-04-23T11:41:27;100079.28;;;27.80;19.86
74834;BME280;63361;52.384;20.930;2023-04-23T11:43:54;100074.19;;;28.78;19.18
74834;BME280;63361;52.384;20.930;2023-04-23T11:46:20;100079.75;;;29.19;20.21
74834;BME280;63361;52.384;20.930;2023-04-23T11:48:47;100103.03;;;28.47;19.78
74834;BME280;63361;52.384;20.930;2023-04-23T11:51:13;100095.22;;;27.61;20.81
74834;BME280;63361;52.384;20.930;2023-04-23T11:53:45;67382.09;;;-144.25;100.00
74834;BME280;63361;52.384;20.930;2023-04-23T11:56:10;67382.09;;;-144.25;100.00
74834;BME280;63361;52.384;20.930;2023-04-23T11:58:35;67382.09;;;-144.25;100.00
74834;BME280;63361;52.384;20.930;2023-04-23T12:01:01;67382.09;;;-144.25;100.00
74834;BME280;63361;52.384;20.930;2023-04-23T12:03:26;67382.09;;;-144.25;100.00
74834;BME280;63361;52.384;20.930;2023-04-23T12:05:53;67382.09;;;-144.25;100.00
74834;BME280;63361;52.384;20.930;2023-04-23T12:08:20;67382.09;;;-144.25;100.00
74834;BME280;63361;52.384;20.930;2023-04-23T12:10:50;67382.09;;;-144.25;100.00
74834;BME280;63361;52.384;20.930;2023-04-23T12:15:48;67382.09;;;-144.25;100.00
74834;BME280;63361;52.384;20.930;2023-04-23T12:18:14;67382.09;;;-144.25;100.00
74834;BME280;63361;52.384;20.930;2023-04-23T12:20:40;67382.09;;;-144.25;100.00
74834;BME280;63361;52.384;20.930;2023-04-23T12:23:05;67382.09;;;-144.25;100.00
74834;BME280;63361;52.384;20.930;2023-04-23T12:25:32;67382.09;;;-144.25;100.00
74834;BME280;63361;52.384;20.930;2023-04-23T12:27:59;67382.09;;;-144.25;100.00
74834;BME280;63361;52.384;20.930;2023-04-23T12:30:28;67382.09;;;-144.25;100.00
74834;BME280;63361;52.384;20.930;2023-04-23T12:33:03;67382.09;;;-144.25;100.00
74834;BME280;63361;52.384;20.930;2023-04-23T12:35:41;67382.09;;;-144.25;100.00
74834;BME280;63361;52.384;20.930;2023-04-23T12:38:07;67382.09;;;-144.25;100.00
74834;BME280;63361;52.384;20.930;2023-04-23T12:40:45;67382.09;;;-144.25;100.00
74834;BME280;63361;52.384;20.930;2023-04-23T12:43:10;67382.09;;;-144.25;100.00